sensor_id;sensor_type;location;lat;lon;timestamp;temperature;humidity
39493;DHT22;25176;51.060;3.720;2023-02-26T00:01:11;5.20;89.10
39493;DHT22;25176;51.060;3.720;2023-02-26T00:03:36;5.20;89.00
39493;DHT22;25176;51.060;3.720;2023-02-26T00:06:02;5.30;89.00
39493;DHT22;25176;51.060;3.720;2023-02-26T00:08:27;5.20;89.00
39493;DHT22;25176;51.060;3.720;2023-02-26T00:10:55;5.20;89.20
39493;DHT22;25176;51.060;3.720;2023-02-26T00:13:21;5.10;89.30
39493;DHT22;25176;51.060;3.720;2023-02-26T00:15:47;5.10;89.30
39493;DHT22;25176;51.060;3.720;2023-02-26T00:18:14;5.10;89.60
39493;DHT22;25176;51.060;3.720;2023-02-26T00:20:40;5.10;89.60
39493;DHT22;25176;51.060;3.720;2023-02-26T00:23:09;5.20;89.70
39493;DHT22;25176;51.060;3.720;2023-02-26T00:25:35;5.10;89.50
39493;DHT22;25176;51.060;3.720;2023-02-26T00:28:01;5.10;89.70
39493;DHT22;25176;51.060;3.720;2023-02-26T00:30:26;5.00;89.70
39493;DHT22;25176;51.060;3.720;2023-02-26T00:32:52;5.00;89.60
39493;DHT22;25176;51.060;3.720;2023-02-26T00:35:18;5.00;90.00
39493;DHT22;25176;51.060;3.720;2023-02-26T00:37:55;5.00;90.00
39493;DHT22;25176;51.060;3.720;2023-02-26T00:40:27;4.90;90.30
39493;DHT22;25176;51.060;3.720;2023-02-26T00:42:54;5.00;90.10
39493;DHT22;25176;51.060;3.720;2023-02-26T00:45:19;5.00;90.20
39493;DHT22;25176;51.060;3.720;2023-02-26T00:47:50;5.00;90.10
39493;DHT22;25176;51.060;3.720;2023-02-26T00:50:22;5.00;90.10
39493;DHT22;25176;51.060;3.720;2023-02-26T00:55:26;5.00;89.80
39493;DHT22;25176;51.060;3.720;2023-02-26T00:57:52;5.10;90.00
39493;DHT22;25176;51.060;3.720;2023-02-26T01:00:17;5.10;90.10
39493;DHT22;25176;51.060;3.720;2023-02-26T01:02:43;4.90;90.10
39493;DHT22;25176;51.060;3.720;2023-02-26T01:05:09;4.80;90.20
39493;DHT22;25176;51.060;3.720;2023-02-26T01:10:19;4.80;90.40
39493;DHT22;25176;51.060;3.720;2023-02-26T01:12:45;4.80;90.30
39493;DHT22;25176;51.060;3.720;2023-02-26T01:15:10;4.70;90.30
39493;DHT22;25176;51.060;3.720;2023-02-26T01:17:41;4.70;90.50
39493;DHT22;25176;51.060;3.720;2023-02-26T01:20:10;4.80;90.50
39493;DHT22;25176;51.060;3.720;2023-02-26T01:22:42;4.80;90.70
39493;DHT22;25176;51.060;3.720;2023-02-26T01:25:12;4.80;90.70
39493;DHT22;25176;51.060;3.720;2023-02-26T01:27:38;4.90;90.50
39493;DHT22;25176;51.060;3.720;2023-02-26T01:30:04;5.00;90.30
39493;DHT22;25176;51.060;3.720;2023-02-26T01:35:21;5.10;90.30
39493;DHT22;25176;51.060;3.720;2023-02-26T01:38:02;5.00;90.20
39493;DHT22;25176;51.060;3.720;2023-02-26T01:43:06;5.00;90.40
39493;DHT22;25176;51.060;3.720;2023-02-26T01:45:35;5.00;90.50
39493;DHT22;25176;51.060;3.720;2023-02-26T01:48:05;5.00;90.60
39493;DHT22;25176;51.060;3.720;2023-02-26T01:50:33;4.90;90.60
39493;DHT22;25176;51.060;3.720;2023-02-26T01:55:43;5.00;90.60
39493;DHT22;25176;51.060;3.720;2023-02-26T01:58:09;5.20;90.60
39493;DHT22;25176;51.060;3.720;2023-02-26T02:00:35;5.20;90.60
39493;DHT22;25176;51.060;3.720;2023-02-26T02:03:01;5.30;90.40
39493;DHT22;25176;51.060;3.720;2023-02-26T02:05:31;5.40;90.40
39493;DHT22;25176;51.060;3.720;2023-02-26T02:07:57;5.40;90.30
39493;DHT22;25176;51.060;3.720;2023-02-26T02:10:23;5.50;90.30
39493;DHT22;25176;51.060;3.720;2023-02-26T02:18:04;5.40;90.30
39493;DHT22;25176;51.060;3.720;2023-02-26T02:23:16;5.40;90.40
39493;DHT22;25176;51.060;3.720;2023-02-26T02:28:31;5.50;90.30
39493;DHT22;25176;51.060;3.720;2023-02-26T02:31:06;5.50;90.30
39493;DHT22;25176;51.060;3.720;2023-02-26T02:36:35;5.60;90.30
39493;DHT22;25176;51.060;3.720;2023-02-26T02:39:05;5.60;90.20
39493;DHT22;25176;51.060;3.720;2023-02-26T02:41:33;5.70;90.00
39493;DHT22;25176;51.060;3.720;2023-02-26T02:44:00;5.70;90.00
39493;DHT22;25176;51.060;3.720;2023-02-26T02:46:27;5.70;89.90
39493;DHT22;25176;51.060;3.720;2023-02-26T02:49:04;5.80;89.70
39493;DHT22;25176;51.060;3.720;2023-02-26T02:51:31;5.70;89.20
39493;DHT22;25176;51.060;3.720;2023-02-26T02:54:00;5.70;89.40
39493;DHT22;25176;51.060;3.720;2023-02-26T02:56:28;5.60;88.80
39493;DHT22;25176;51.060;3.720;2023-02-26T02:59:56;5.40;89.70
39493;DHT22;25176;51.060;3.720;2023-02-26T03:02:03;5.30;90.00
39493;DHT22;25176;51.060;3.720;2023-02-26T03:04:31;5.20;89.60
39493;DHT22;25176;51.060;3.720;2023-02-26T03:06:56;5.10;89.20
39493;DHT22;25176;51.060;3.720;2023-02-26T03:09:22;5.10;88.40
39493;DHT22;25176;51.060;3.720;2023-02-26T03:11:47;5.10;87.80
39493;DHT22;25176;51.060;3.720;2023-02-26T03:14:12;5.00;88.00
39493;DHT22;25176;51.060;3.720;2023-02-26T03:21:47;4.80;88.80
39493;DHT22;25176;51.060;3.720;2023-02-26T03:24:28;4.80;89.30
39493;DHT22;25176;51.060;3.720;2023-02-26T03:26:57;4.70;89.60
39493;DHT22;25176;51.060;3.720;2023-02-26T03:29:32;4.70;89.80
39493;DHT22;25176;51.060;3.720;2023-02-26T03:31:59;4.70;90.30
39493;DHT22;25176;51.060;3.720;2023-02-26T03:34:29;4.60;90.40
39493;DHT22;25176;51.060;3.720;2023-02-26T03:36:59;4.50;90.40
39493;DHT22;25176;51.060;3.720;2023-02-26T03:39:34;4.40;90.30
39493;DHT22;25176;51.060;3.720;2023-02-26T03:42:03;4.40;90.50
39493;DHT22;25176;51.060;3.720;2023-02-26T03:44:31;4.40;90.70
39493;DHT22;25176;51.060;3.720;2023-02-26T03:46:59;4.30;90.80
39493;DHT22;25176;51.060;3.720;2023-02-26T03:49:27;4.30;91.00
39493;DHT22;25176;51.060;3.720;2023-02-26T03:51:53;4.20;90.90
39493;DHT22;25176;51.060;3.720;2023-02-26T03:54:25;4.10;91.00
39493;DHT22;25176;51.060;3.720;2023-02-26T03:56:51;4.10;90.90
39493;DHT22;25176;51.060;3.720;2023-02-26T03:59:17;4.00;91.00
39493;DHT22;25176;51.060;3.720;2023-02-26T04:04:30;4.30;90.00
39493;DHT22;25176;51.060;3.720;2023-02-26T04:06:57;3.90;89.20
39493;DHT22;25176;51.060;3.720;2023-02-26T04:09:22;3.90;88.30
39493;DHT22;25176;51.060;3.720;2023-02-26T04:11:48;3.80;88.10
39493;DHT22;25176;51.060;3.720;2023-02-26T04:14:14;3.80;87.40
39493;DHT22;25176;51.060;3.720;2023-02-26T04:16:40;3.70;86.60
39493;DHT22;25176;51.060;3.720;2023-02-26T04:19:05;3.70;86.80
39493;DHT22;25176;51.060;3.720;2023-02-26T04:21:31;3.70;86.50
39493;DHT22;25176;51.060;3.720;2023-02-26T04:23:56;3.70;86.60
39493;DHT22;25176;51.060;3.720;2023-02-26T04:26:21;3.60;85.90
39493;DHT22;25176;51.060;3.720;2023-02-26T04:28:47;3.60;85.50
39493;DHT22;25176;51.060;3.720;2023-02-26T04:31:12;3.60;85.50
39493;DHT22;25176;51.060;3.720;2023-02-26T04:33:38;3.60;85.10
39493;DHT22;25176;51.060;3.720;2023-02-26T04:36:03;3.50;84.70
39493;DHT22;25176;51.060;3.720;2023-02-26T04:38:29;3.50;84.80
39493;DHT22;25176;51.060;3.720;2023-02-26T04:40:54;3.50;84.70
39493;DHT22;25176;51.060;3.720;2023-02-26T04:43:20;3.40;84.50
39493;DHT22;25176;51.060;3.720;2023-02-26T04:45:46;3.50;85.10
39493;DHT22;25176;51.060;3.720;2023-02-26T04:48:12;3.40;84.80
39493;DHT22;25176;51.060;3.720;2023-02-26T04:50:37;3.40;85.50
39493;DHT22;25176;51.060;3.720;2023-02-26T04:53:03;3.50;85.30
39493;DHT22;25176;51.060;3.720;2023-02-26T04:55:28;3.50;85.00
39493;DHT22;25176;51.060;3.720;2023-02-26T04:57:54;3.40;85.20
39493;DHT22;25176;51.060;3.720;2023-02-26T05:00:19;3.40;85.30
39493;DHT22;25176;51.060;3.720;2023-02-26T05:02:45;3.40;85.60
39493;DHT22;25176;51.060;3.720;2023-02-26T05:05:10;3.50;85.30
39493;DHT22;25176;51.060;3.720;2023-02-26T05:07:36;3.50;85.60
39493;DHT22;25176;51.060;3.720;2023-02-26T05:10:02;3.50;85.80
39493;DHT22;25176;51.060;3.720;2023-02-26T05:12:27;3.40;85.50
39493;DHT22;25176;51.060;3.720;2023-02-26T05:14:53;3.40;85.20
39493;DHT22;25176;51.060;3.720;2023-02-26T05:17:18;3.40;85.20
39493;DHT22;25176;51.060;3.720;2023-02-26T05:19:44;3.30;85.30
39493;DHT22;25176;51.060;3.720;2023-02-26T05:22:09;3.30;85.70
39493;DHT22;25176;51.060;3.720;2023-02-26T05:24:34;3.20;85.40
39493;DHT22;25176;51.060;3.720;2023-02-26T05:27:00;3.20;85.00
39493;DHT22;25176;51.060;3.720;2023-02-26T05:29:25;3.20;84.90
39493;DHT22;25176;51.060;3.720;2023-02-26T05:31:51;3.20;84.60
39493;DHT22;25176;51.060;3.720;2023-02-26T05:34:16;3.20;84.60
39493;DHT22;25176;51.060;3.720;2023-02-26T05:36:42;3.20;84.50
39493;DHT22;25176;51.060;3.720;2023-02-26T05:39:08;3.20;83.90
39493;DHT22;25176;51.060;3.720;2023-02-26T05:41:33;3.20;84.00
39493;DHT22;25176;51.060;3.720;2023-02-26T05:43:59;3.20;84.20
39493;DHT22;25176;51.060;3.720;2023-02-26T05:46:24;3.20;84.50
39493;DHT22;25176;51.060;3.720;2023-02-26T05:48:50;3.10;84.50
39493;DHT22;25176;51.060;3.720;2023-02-26T05:51:15;3.10;84.30
39493;DHT22;25176;51.060;3.720;2023-02-26T05:53:41;3.20;84.30
39493;DHT22;25176;51.060;3.720;2023-02-26T05:56:06;3.20;84.10
39493;DHT22;25176;51.060;3.720;2023-02-26T05:58:32;3.10;84.00
39493;DHT22;25176;51.060;3.720;2023-02-26T06:00:58;3.10;84.40
39493;DHT22;25176;51.060;3.720;2023-02-26T06:03:23;3.10;83.80
39493;DHT22;25176;51.060;3.720;2023-02-26T06:05:49;3.00;83.20
39493;DHT22;25176;51.060;3.720;2023-02-26T06:08:14;3.00;83.50
39493;DHT22;25176;51.060;3.720;2023-02-26T06:10:41;3.00;83.60
39493;DHT22;25176;51.060;3.720;2023-02-26T06:13:06;3.10;83.10
39493;DHT22;25176;51.060;3.720;2023-02-26T06:15:32;3.00;83.50
39493;DHT22;25176;51.060;3.720;2023-02-26T06:17:57;2.90;83.50
39493;DHT22;25176;51.060;3.720;2023-02-26T06:20:23;2.90;83.60
39493;DHT22;25176;51.060;3.720;2023-02-26T06:22:48;2.90;83.50
39493;DHT22;25176;51.060;3.720;2023-02-26T06:25:14;2.90;83.30
39493;DHT22;25176;51.060;3.720;2023-02-26T06:27:40;2.80;83.40
39493;DHT22;25176;51.060;3.720;2023-02-26T06:30:06;2.80;83.90
39493;DHT22;25176;51.060;3.720;2023-02-26T06:32:31;2.80;84.10
39493;DHT22;25176;51.060;3.720;2023-02-26T06:34:57;2.70;83.70
39493;DHT22;25176;51.060;3.720;2023-02-26T06:37:23;2.80;83.90
39493;DHT22;25176;51.060;3.720;2023-02-26T06:39:49;2.80;83.90
39493;DHT22;25176;51.060;3.720;2023-02-26T06:42:14;2.70;83.60
39493;DHT22;25176;51.060;3.720;2023-02-26T06:44:40;2.70;84.10
39493;DHT22;25176;51.060;3.720;2023-02-26T06:47:05;2.70;84.20
39493;DHT22;25176;51.060;3.720;2023-02-26T06:49:30;2.60;84.10
39493;DHT22;25176;51.060;3.720;2023-02-26T06:51:56;2.60;84.50
39493;DHT22;25176;51.060;3.720;2023-02-26T06:54:21;2.60;84.40
39493;DHT22;25176;51.060;3.720;2023-02-26T06:56:47;2.60;83.80
39493;DHT22;25176;51.060;3.720;2023-02-26T06:59:12;2.60;83.50
39493;DHT22;25176;51.060;3.720;2023-02-26T07:01:39;2.60;83.70
39493;DHT22;25176;51.060;3.720;2023-02-26T07:04:05;2.50;83.50
39493;DHT22;25176;51.060;3.720;2023-02-26T07:06:30;2.60;83.60
39493;DHT22;25176;51.060;3.720;2023-02-26T07:08:56;2.60;83.50
39493;DHT22;25176;51.060;3.720;2023-02-26T07:11:22;2.60;83.50
39493;DHT22;25176;51.060;3.720;2023-02-26T07:13:47;2.60;83.60
39493;DHT22;25176;51.060;3.720;2023-02-26T07:16:12;2.60;83.40
39493;DHT22;25176;51.060;3.720;2023-02-26T07:18:38;2.50;83.40
39493;DHT22;25176;51.060;3.720;2023-02-26T07:21:04;2.50;83.40
39493;DHT22;25176;51.060;3.720;2023-02-26T07:23:29;2.50;83.70
39493;DHT22;25176;51.060;3.720;2023-02-26T07:25:55;2.60;83.70
39493;DHT22;25176;51.060;3.720;2023-02-26T07:28:21;2.60;83.40
39493;DHT22;25176;51.060;3.720;2023-02-26T07:30:46;2.60;83.20
39493;DHT22;25176;51.060;3.720;2023-02-26T07:33:12;2.50;83.60
39493;DHT22;25176;51.060;3.720;2023-02-26T07:35:38;2.60;83.40
39493;DHT22;25176;51.060;3.720;2023-02-26T07:38:03;2.60;83.40
39493;DHT22;25176;51.060;3.720;2023-02-26T07:40:29;2.60;83.40
39493;DHT22;25176;51.060;3.720;2023-02-26T07:42:55;2.60;83.20
39493;DHT22;25176;51.060;3.720;2023-02-26T07:45:20;2.70;83.40
39493;DHT22;25176;51.060;3.720;2023-02-26T07:47:47;2.70;83.80
39493;DHT22;25176;51.060;3.720;2023-02-26T07:50:12;2.70;83.10
39493;DHT22;25176;51.060;3.720;2023-02-26T07:52:38;2.60;83.10
39493;DHT22;25176;51.060;3.720;2023-02-26T07:55:04;2.60;82.90
39493;DHT22;25176;51.060;3.720;2023-02-26T07:57:29;2.70;82.60
39493;DHT22;25176;51.060;3.720;2023-02-26T07:59:55;2.80;82.40
39493;DHT22;25176;51.060;3.720;2023-02-26T08:02:20;2.80;82.60
39493;DHT22;25176;51.060;3.720;2023-02-26T08:04:47;2.90;82.10
39493;DHT22;25176;51.060;3.720;2023-02-26T08:07:13;3.00;81.20
39493;DHT22;25176;51.060;3.720;2023-02-26T08:09:38;3.00;81.30
39493;DHT22;25176;51.060;3.720;2023-02-26T08:12:04;2.90;80.80
39493;DHT22;25176;51.060;3.720;2023-02-26T08:14:29;3.00;80.80
39493;DHT22;25176;51.060;3.720;2023-02-26T08:16:55;3.00;80.80
39493;DHT22;25176;51.060;3.720;2023-02-26T08:19:20;3.10;80.50
39493;DHT22;25176;51.060;3.720;2023-02-26T08:21:46;3.10;80.00
39493;DHT22;25176;51.060;3.720;2023-02-26T08:24:11;3.20;80.20
39493;DHT22;25176;51.060;3.720;2023-02-26T08:26:37;3.20;80.00
39493;DHT22;25176;51.060;3.720;2023-02-26T08:29:03;3.30;79.70
39493;DHT22;25176;51.060;3.720;2023-02-26T08:31:29;3.30;79.80
39493;DHT22;25176;51.060;3.720;2023-02-26T08:33:55;3.40;79.80
39493;DHT22;25176;51.060;3.720;2023-02-26T08:36:22;3.50;79.50
39493;DHT22;25176;51.060;3.720;2023-02-26T08:38:47;3.50;79.30
39493;DHT22;25176;51.060;3.720;2023-02-26T08:41:13;3.60;78.80
39493;DHT22;25176;51.060;3.720;2023-02-26T08:43:38;3.70;78.70
39493;DHT22;25176;51.060;3.720;2023-02-26T08:46:04;3.90;78.60
39493;DHT22;25176;51.060;3.720;2023-02-26T08:48:29;4.50;76.40
39493;DHT22;25176;51.060;3.720;2023-02-26T08:50:55;5.90;73.70
39493;DHT22;25176;51.060;3.720;2023-02-26T08:53:20;7.00;70.10
39493;DHT22;25176;51.060;3.720;2023-02-26T08:55:46;8.30;69.20
39493;DHT22;25176;51.060;3.720;2023-02-26T08:58:12;9.60;66.10
39493;DHT22;25176;51.060;3.720;2023-02-26T09:00:37;10.10;63.00
39493;DHT22;25176;51.060;3.720;2023-02-26T09:03:03;11.10;62.70
39493;DHT22;25176;51.060;3.720;2023-02-26T09:05:28;11.80;58.50
39493;DHT22;25176;51.060;3.720;2023-02-26T09:07:54;10.40;59.40
39493;DHT22;25176;51.060;3.720;2023-02-26T09:10:19;10.30;59.80
39493;DHT22;25176;51.060;3.720;2023-02-26T09:12:45;10.90;58.90
39493;DHT22;25176;51.060;3.720;2023-02-26T09:15:11;12.20;57.40
39493;DHT22;25176;51.060;3.720;2023-02-26T09:17:36;12.10;57.10
39493;DHT22;25176;51.060;3.720;2023-02-26T09:20:03;11.70;56.70
39493;DHT22;25176;51.060;3.720;2023-02-26T09:22:28;11.70;56.00
39493;DHT22;25176;51.060;3.720;2023-02-26T09:24:54;12.70;55.40
39493;DHT22;25176;51.060;3.720;2023-02-26T09:27:20;11.90;54.60
39493;DHT22;25176;51.060;3.720;2023-02-26T09:29:45;11.80;54.90
39493;DHT22;25176;51.060;3.720;2023-02-26T09:32:10;11.90;55.60
39493;DHT22;25176;51.060;3.720;2023-02-26T09:34:36;12.40;54.30
39493;DHT22;25176;51.060;3.720;2023-02-26T09:37:02;11.80;53.80
39493;DHT22;25176;51.060;3.720;2023-02-26T09:39:28;11.60;54.10
39493;DHT22;25176;51.060;3.720;2023-02-26T09:41:54;12.60;53.70
39493;DHT22;25176;51.060;3.720;2023-02-26T09:44:24;12.70;51.60
39493;DHT22;25176;51.060;3.720;2023-02-26T09:47:05;13.60;50.70
39493;DHT22;25176;51.060;3.720;2023-02-26T09:49:40;12.70;51.60
39493;DHT22;25176;51.060;3.720;2023-02-26T09:54:35;11.40;53.50
39493;DHT22;25176;51.060;3.720;2023-02-26T09:57:03;12.10;53.10
39493;DHT22;25176;51.060;3.720;2023-02-26T09:59:31;12.60;52.20
39493;DHT22;25176;51.060;3.720;2023-02-26T10:01:58;13.70;52.30
39493;DHT22;25176;51.060;3.720;2023-02-26T10:04:29;13.80;49.90
39493;DHT22;25176;51.060;3.720;2023-02-26T10:07:10;12.10;50.80
39493;DHT22;25176;51.060;3.720;2023-02-26T10:09:58;11.70;52.70
39493;DHT22;25176;51.060;3.720;2023-02-26T10:12:25;11.70;50.90
39493;DHT22;25176;51.060;3.720;2023-02-26T10:14:54;10.60;52.90
39493;DHT22;25176;51.060;3.720;2023-02-26T10:17:25;11.80;52.40
39493;DHT22;25176;51.060;3.720;2023-02-26T10:19:53;10.90;52.40
39493;DHT22;25176;51.060;3.720;2023-02-26T10:22:31;10.50;52.60
39493;DHT22;25176;51.060;3.720;2023-02-26T10:25:18;10.80;52.50
39493;DHT22;25176;51.060;3.720;2023-02-26T10:30:21;9.60;53.70
39493;DHT22;25176;51.060;3.720;2023-02-26T10:35:16;7.50;57.10
39493;DHT22;25176;51.060;3.720;2023-02-26T10:42:47;6.40;58.90
39493;DHT22;25176;51.060;3.720;2023-02-26T10:47:49;6.20;59.30
39493;DHT22;25176;51.060;3.720;2023-02-26T10:50:17;6.20;60.30
39493;DHT22;25176;51.060;3.720;2023-02-26T10:52:45;6.30;61.00
39493;DHT22;25176;51.060;3.720;2023-02-26T10:57:42;6.10;61.60
39493;DHT22;25176;51.060;3.720;2023-02-26T11:00:13;6.20;61.60
39493;DHT22;25176;51.060;3.720;2023-02-26T11:02:41;6.00;62.00
39493;DHT22;25176;51.060;3.720;2023-02-26T11:05:21;5.90;62.30
39493;DHT22;25176;51.060;3.720;2023-02-26T11:07:49;6.00;62.50
39493;DHT22;25176;51.060;3.720;2023-02-26T11:10:16;5.90;62.70
39493;DHT22;25176;51.060;3.720;2023-02-26T11:12:44;5.90;63.00
39493;DHT22;25176;51.060;3.720;2023-02-26T11:15:16;5.80;63.10
39493;DHT22;25176;51.060;3.720;2023-02-26T11:17:44;5.80;62.40
39493;DHT22;25176;51.060;3.720;2023-02-26T11:20:17;5.80;61.80
39493;DHT22;25176;51.060;3.720;2023-02-26T11:22:47;5.70;60.50
39493;DHT22;25176;51.060;3.720;2023-02-26T11:25:16;5.70;60.40
39493;DHT22;25176;51.060;3.720;2023-02-26T11:27:42;5.90;60.80
39493;DHT22;25176;51.060;3.720;2023-02-26T11:30:17;5.70;60.90
39493;DHT22;25176;51.060;3.720;2023-02-26T11:32:43;5.70;60.00
39493;DHT22;25176;51.060;3.720;2023-02-26T11:35:13;5.70;58.60
39493;DHT22;25176;51.060;3.720;2023-02-26T11:37:40;5.70;58.60
39493;DHT22;25176;51.060;3.720;2023-02-26T11:40:16;5.80;58.60
39493;DHT22;25176;51.060;3.720;2023-02-26T11:42:43;5.80;59.50
39493;DHT22;25176;51.060;3.720;2023-02-26T11:45:12;5.80;60.50
39493;DHT22;25176;51.060;3.720;2023-02-26T11:47:38;5.90;61.00
39493;DHT22;25176;51.060;3.720;2023-02-26T11:50:10;5.70;60.00
39493;DHT22;25176;51.060;3.720;2023-02-26T11:52:41;5.70;60.20
39493;DHT22;25176;51.060;3.720;2023-02-26T11:55:17;5.80;60.20
39493;DHT22;25176;51.060;3.720;2023-02-26T11:57:43;5.80;60.10
39493;DHT22;25176;51.060;3.720;2023-02-26T12:00:17;5.80;59.80
39493;DHT22;25176;51.060;3.720;2023-02-26T12:02:42;5.90;61.00
39493;DHT22;25176;51.060;3.720;2023-02-26T12:05:10;5.90;61.20
39493;DHT22;25176;51.060;3.720;2023-02-26T12:07:37;6.00;59.90
39493;DHT22;25176;51.060;3.720;2023-02-26T12:10:08;6.10;59.90
39493;DHT22;25176;51.060;3.720;2023-02-26T12:23:15;6.10;59.60
39493;DHT22;25176;51.060;3.720;2023-02-26T12:25:49;6.20;58.80
39493;DHT22;25176;51.060;3.720;2023-02-26T12:38:20;6.00;57.50
39493;DHT22;25176;51.060;3.720;2023-02-26T12:40:55;6.00;57.70
39493;DHT22;25176;51.060;3.720;2023-02-26T12:43:33;6.10;58.30
39493;DHT22;25176;51.060;3.720;2023-02-26T12:51:06;6.10;58.40
39493;DHT22;25176;51.060;3.720;2023-02-26T12:56:07;6.00;58.80
39493;DHT22;25176;51.060;3.720;2023-02-26T12:58:41;6.00;58.60
39493;DHT22;25176;51.060;3.720;2023-02-26T13:04:05;6.10;58.90
39493;DHT22;25176;51.060;3.720;2023-02-26T13:06:39;5.90;59.20
39493;DHT22;25176;51.060;3.720;2023-02-26T13:09:14;6.00;59.50
39493;DHT22;25176;51.060;3.720;2023-02-26T13:16:53;6.00;60.80
39493;DHT22;25176;51.060;3.720;2023-02-26T13:24:37;6.20;61.20
39493;DHT22;25176;51.060;3.720;2023-02-26T13:27:04;6.30;60.80
39493;DHT22;25176;51.060;3.720;2023-02-26T13:29:44;6.30;61.50
39493;DHT22;25176;51.060;3.720;2023-02-26T13:32:24;6.20;61.70
39493;DHT22;25176;51.060;3.720;2023-02-26T13:34:54;6.20;61.40
39493;DHT22;25176;51.060;3.720;2023-02-26T13:37:33;6.10;62.30
39493;DHT22;25176;51.060;3.720;2023-02-26T13:42:53;6.30;61.90
39493;DHT22;25176;51.060;3.720;2023-02-26T13:48:08;6.30;62.10
39493;DHT22;25176;51.060;3.720;2023-02-26T13:50:44;6.50;63.10
39493;DHT22;25176;51.060;3.720;2023-02-26T13:55:52;6.60;63.00
39493;DHT22;25176;51.060;3.720;2023-02-26T14:00:48;6.50;62.60
39493;DHT22;25176;51.060;3.720;2023-02-26T14:05:51;6.20;63.40
39493;DHT22;25176;51.060;3.720;2023-02-26T14:08:47;6.20;64.00
39493;DHT22;25176;51.060;3.720;2023-02-26T14:14:04;6.30;62.90
39493;DHT22;25176;51.060;3.720;2023-02-26T14:16:28;6.50;63.20
39493;DHT22;25176;51.060;3.720;2023-02-26T14:19:02;6.50;63.80
39493;DHT22;25176;51.060;3.720;2023-02-26T14:24:00;6.40;64.60
39493;DHT22;25176;51.060;3.720;2023-02-26T14:26:26;6.60;64.60
39493;DHT22;25176;51.060;3.720;2023-02-26T14:28:54;6.50;63.90
39493;DHT22;25176;51.060;3.720;2023-02-26T14:31:21;6.50;64.70
39493;DHT22;25176;51.060;3.720;2023-02-26T14:33:57;6.50;64.70
39493;DHT22;25176;51.060;3.720;2023-02-26T14:36:37;6.50;65.30
39493;DHT22;25176;51.060;3.720;2023-02-26T14:39:04;6.30;65.00
39493;DHT22;25176;51.060;3.720;2023-02-26T14:41:35;6.40;65.80
39493;DHT22;25176;51.060;3.720;2023-02-26T14:44:14;6.50;64.80
39493;DHT22;25176;51.060;3.720;2023-02-26T14:46:42;6.50;64.30
39493;DHT22;25176;51.060;3.720;2023-02-26T14:49:50;6.40;64.20
39493;DHT22;25176;51.060;3.720;2023-02-26T14:52:04;6.40;64.80
39493;DHT22;25176;51.060;3.720;2023-02-26T14:57:11;6.50;64.10
39493;DHT22;25176;51.060;3.720;2023-02-26T15:07:31;6.50;63.70
39493;DHT22;25176;51.060;3.720;2023-02-26T15:15:21;6.50;63.50
39493;DHT22;25176;51.060;3.720;2023-02-26T15:22:45;6.50;64.50
39493;DHT22;25176;51.060;3.720;2023-02-26T15:25:48;6.50;65.00
39493;DHT22;25176;51.060;3.720;2023-02-26T15:28:09;6.50;65.70
39493;DHT22;25176;51.060;3.720;2023-02-26T15:30:36;6.60;66.30
39493;DHT22;25176;51.060;3.720;2023-02-26T15:33:03;6.60;66.60
39493;DHT22;25176;51.060;3.720;2023-02-26T15:35:29;6.40;66.90
39493;DHT22;25176;51.060;3.720;2023-02-26T15:37:56;6.40;67.20
39493;DHT22;25176;51.060;3.720;2023-02-26T15:40:24;6.30;67.30
39493;DHT22;25176;51.060;3.720;2023-02-26T15:42:52;6.30;67.10
39493;DHT22;25176;51.060;3.720;2023-02-26T15:45:52;6.40;67.20
39493;DHT22;25176;51.060;3.720;2023-02-26T15:48:19;6.40;66.70
39493;DHT22;25176;51.060;3.720;2023-02-26T15:50:46;6.30;66.90
39493;DHT22;25176;51.060;3.720;2023-02-26T15:53:15;6.20;67.40
39493;DHT22;25176;51.060;3.720;2023-02-26T15:55:45;6.30;67.80
39493;DHT22;25176;51.060;3.720;2023-02-26T15:58:11;6.30;67.90
39493;DHT22;25176;51.060;3.720;2023-02-26T16:00:38;6.20;67.80
39493;DHT22;25176;51.060;3.720;2023-02-26T16:03:03;6.20;68.20
39493;DHT22;25176;51.060;3.720;2023-02-26T16:05:29;6.20;67.90
39493;DHT22;25176;51.060;3.720;2023-02-26T16:07:55;6.10;67.30
39493;DHT22;25176;51.060;3.720;2023-02-26T16:10:30;6.20;67.80
39493;DHT22;25176;51.060;3.720;2023-02-26T16:12:57;6.20;67.40
39493;DHT22;25176;51.060;3.720;2023-02-26T16:15:27;6.10;67.50
39493;DHT22;25176;51.060;3.720;2023-02-26T16:17:53;6.30;67.00
39493;DHT22;25176;51.060;3.720;2023-02-26T16:20:19;6.20;67.20
39493;DHT22;25176;51.060;3.720;2023-02-26T16:22:47;6.20;67.90
39493;DHT22;25176;51.060;3.720;2023-02-26T16:25:23;6.20;68.30
39493;DHT22;25176;51.060;3.720;2023-02-26T16:27:56;6.20;68.60
39493;DHT22;25176;51.060;3.720;2023-02-26T16:30:26;6.10;68.60
39493;DHT22;25176;51.060;3.720;2023-02-26T16:32:54;6.10;68.60
39493;DHT22;25176;51.060;3.720;2023-02-26T16:35:21;6.10;69.20
39493;DHT22;25176;51.060;3.720;2023-02-26T16:37:50;6.10;68.60
39493;DHT22;25176;51.060;3.720;2023-02-26T16:40:26;6.10;68.50
39493;DHT22;25176;51.060;3.720;2023-02-26T16:43:03;6.10;69.30
39493;DHT22;25176;51.060;3.720;2023-02-26T16:47:54;6.10;71.00
39493;DHT22;25176;51.060;3.720;2023-02-26T16:50:25;6.00;72.00
39493;DHT22;25176;51.060;3.720;2023-02-26T16:52:55;6.10;72.70
39493;DHT22;25176;51.060;3.720;2023-02-26T16:55:21;6.00;73.00
39493;DHT22;25176;51.060;3.720;2023-02-26T16:57:49;5.90;73.10
39493;DHT22;25176;51.060;3.720;2023-02-26T17:00:15;5.80;73.00
39493;DHT22;25176;51.060;3.720;2023-02-26T17:02:42;5.90;73.50
39493;DHT22;25176;51.060;3.720;2023-02-26T17:05:15;5.90;73.20
39493;DHT22;25176;51.060;3.720;2023-02-26T17:07:48;5.90;73.40
39493;DHT22;25176;51.060;3.720;2023-02-26T17:10:22;5.80;73.60
39493;DHT22;25176;51.060;3.720;2023-02-26T17:12:49;5.90;74.00
39493;DHT22;25176;51.060;3.720;2023-02-26T17:15:19;5.80;74.30
39493;DHT22;25176;51.060;3.720;2023-02-26T17:17:46;5.80;74.50
39493;DHT22;25176;51.060;3.720;2023-02-26T17:20:12;5.80;74.80
39493;DHT22;25176;51.060;3.720;2023-02-26T17:22:37;5.80;75.10
39493;DHT22;25176;51.060;3.720;2023-02-26T17:25:03;5.80;75.50
39493;DHT22;25176;51.060;3.720;2023-02-26T17:27:31;5.80;76.00
39493;DHT22;25176;51.060;3.720;2023-02-26T17:29:57;5.80;76.00
39493;DHT22;25176;51.060;3.720;2023-02-26T17:32:25;5.70;75.80
39493;DHT22;25176;51.060;3.720;2023-02-26T17:34:51;5.80;76.10
39493;DHT22;25176;51.060;3.720;2023-02-26T17:37:17;5.80;76.30
39493;DHT22;25176;51.060;3.720;2023-02-26T17:39:43;5.80;76.30
39493;DHT22;25176;51.060;3.720;2023-02-26T17:42:09;5.70;76.50
39493;DHT22;25176;51.060;3.720;2023-02-26T17:44:34;5.70;76.40
39493;DHT22;25176;51.060;3.720;2023-02-26T17:47:00;5.70;76.60
39493;DHT22;25176;51.060;3.720;2023-02-26T17:49:25;5.70;76.60
39493;DHT22;25176;51.060;3.720;2023-02-26T17:51:51;5.70;76.40
39493;DHT22;25176;51.060;3.720;2023-02-26T17:54:18;5.70;76.20
39493;DHT22;25176;51.060;3.720;2023-02-26T17:56:43;5.70;76.40
39493;DHT22;25176;51.060;3.720;2023-02-26T17:59:09;5.70;76.50
39493;DHT22;25176;51.060;3.720;2023-02-26T18:01:37;5.70;76.50
39493;DHT22;25176;51.060;3.720;2023-02-26T18:04:03;5.70;76.70
39493;DHT22;25176;51.060;3.720;2023-02-26T18:06:32;5.70;76.80